sensor_id;sensor_type;location;lat;lon;timestamp;pressure;altitude;pressure_sealevel;temperature;humidity
58686;BME280;44465;53.206;-6.106;2024-03-29T00:01:03;97565.94;;;21.15;47.44
58686;BME280;44465;53.206;-6.106;2024-03-29T00:03:28;97576.16;;;21.19;47.56
58686;BME280;44465;53.206;-6.106;2024-03-29T00:05:53;97567.78;;;21.14;47.52
58686;BME280;44465;53.206;-6.106;2024-03-29T00:08:19;97578.16;;;21.17;47.34
58686;BME280;44465;53.206;-6.106;2024-03-29T00:10:47;97570.63;;;21.13;47.28
58686;BME280;44465;53.206;-6.106;2024-03-29T00:13:12;97582.50;;;21.10;47.38
58686;BME280;44465;53.206;-6.106;2024-03-29T00:15:37;97557.88;;;20.98;47.33
58686;BME280;44465;53.206;-6.106;2024-03-29T00:18:03;97581.31;;;21.13;47.28
58686;BME280;44465;53.206;-6.106;2024-03-29T00:20:30;97573.09;;;21.06;47.36
58686;BME280;44465;53.206;-6.106;2024-03-29T00:22:55;97584.84;;;21.13;47.17
58686;BME280;44465;53.206;-6.106;2024-03-29T00:25:21;97581.31;;;21.13;47.29
58686;BME280;44465;53.206;-6.106;2024-03-29T00:27:46;97571.28;;;21.06;47.07
58686;BME280;44465;53.206;-6.106;2024-03-29T00:30:13;97584.34;;;21.10;46.87
58686;BME280;44465;53.206;-6.106;2024-03-29T00:32:39;97576.81;;;21.05;47.16
58686;BME280;44465;53.206;-6.106;2024-03-29T00:35:04;97584.84;;;21.05;47.11
58686;BME280;44465;53.206;-6.106;2024-03-29T00:37:30;97577.94;;;21.02;47.21
58686;BME280;44465;53.206;-6.106;2024-03-29T00:39:55;97589.00;;;21.07;46.90
58686;BME280;44465;53.206;-6.106;2024-03-29T00:42:21;97590.81;;;21.07;47.08
58686;BME280;44465;53.206;-6.106;2024-03-29T00:44:46;97580.78;;;21.01;46.85
58686;BME280;44465;53.206;-6.106;2024-03-29T00:47:12;97589.31;;;21.04;46.99
58686;BME280;44465;53.206;-6.106;2024-03-29T00:49:38;97585.16;;;21.02;46.93
58686;BME280;44465;53.206;-6.106;2024-03-29T00:52:04;97587.66;;;21.03;46.78
58686;BME280;44465;53.206;-6.106;2024-03-29T00:54:30;97573.22;;;20.88;46.82
58686;BME280;44465;53.206;-6.106;2024-03-29T00:56:56;97602.03;;;21.02;46.80
58686;BME280;44465;53.206;-6.106;2024-03-29T00:59:22;97592.97;;;20.95;46.82
58686;BME280;44465;53.206;-6.106;2024-03-29T01:01:48;97584.44;;;20.91;46.96
58686;BME280;44465;53.206;-6.106;2024-03-29T01:04:14;97593.66;;;20.97;46.93
58686;BME280;44465;53.206;-6.106;2024-03-29T01:06:39;97603.38;;;20.98;46.89
58686;BME280;44465;53.206;-6.106;2024-03-29T01:09:10;97595.16;;;20.91;46.88
58686;BME280;44465;53.206;-6.106;2024-03-29T01:11:39;97612.22;;;20.99;47.01
58686;BME280;44465;53.206;-6.106;2024-03-29T01:14:05;97612.06;;;21.00;46.72
58686;BME280;44465;53.206;-6.106;2024-03-29T01:16:32;97624.59;;;21.00;46.88
58686;BME280;44465;53.206;-6.106;2024-03-29T01:18:58;97626.44;;;20.99;46.86
58686;BME280;44465;53.206;-6.106;2024-03-29T01:21:24;97627.44;;;20.98;46.93
58686;BME280;44465;53.206;-6.106;2024-03-29T01:23:49;97626.59;;;20.98;46.81
58686;BME280;44465;53.206;-6.106;2024-03-29T01:26:15;97612.00;;;20.92;46.74
58686;BME280;44465;53.206;-6.106;2024-03-29T01:28:43;97615.38;;;20.94;46.65
58686;BME280;44465;53.206;-6.106;2024-03-29T01:31:09;97621.56;;;20.95;46.51
58686;BME280;44465;53.206;-6.106;2024-03-29T01:33:34;97607.00;;;20.89;46.64
58686;BME280;44465;53.206;-6.106;2024-03-29T01:36:08;97622.72;;;20.92;46.59
58686;BME280;44465;53.206;-6.106;2024-03-29T01:38:34;97623.56;;;20.92;46.75
58686;BME280;44465;53.206;-6.106;2024-03-29T01:41:00;97607.16;;;20.87;46.53
58686;BME280;44465;53.206;-6.106;2024-03-29T01:43:25;97622.06;;;20.90;46.86
58686;BME280;44465;53.206;-6.106;2024-03-29T01:45:55;97610.31;;;20.83;46.59
58686;BME280;44465;53.206;-6.106;2024-03-29T01:48:24;97622.72;;;20.92;46.72
58686;BME280;44465;53.206;-6.106;2024-03-29T01:50:51;97617.38;;;20.92;46.69
58686;BME280;44465;53.206;-6.106;2024-03-29T01:53:20;97621.03;;;20.91;46.60
58686;BME280;44465;53.206;-6.106;2024-03-29T01:55:46;97617.53;;;20.90;46.65
58686;BME280;44465;53.206;-6.106;2024-03-29T01:58:12;97607.63;;;20.83;46.69
58686;BME280;44465;53.206;-6.106;2024-03-29T02:00:52;97613.66;;;20.85;46.75
58686;BME280;44465;53.206;-6.106;2024-03-29T02:03:19;97623.88;;;20.89;46.77
58686;BME280;44465;53.206;-6.106;2024-03-29T02:05:46;97620.53;;;20.87;46.74
58686;BME280;44465;53.206;-6.106;2024-03-29T02:08:13;97621.38;;;20.88;46.62
58686;BME280;44465;53.206;-6.106;2024-03-29T02:10:39;97622.38;;;20.87;46.61
58686;BME280;44465;53.206;-6.106;2024-03-29T02:13:05;97616.31;;;20.76;46.43
58686;BME280;44465;53.206;-6.106;2024-03-29T02:15:31;97621.19;;;20.81;46.75
58686;BME280;44465;53.206;-6.106;2024-03-29T02:17:57;97624.53;;;20.83;46.59
58686;BME280;44465;53.206;-6.106;2024-03-29T02:20:23;97617.00;;;20.79;46.55
58686;BME280;44465;53.206;-6.106;2024-03-29T02:23:05;97611.66;;;20.79;46.72
58686;BME280;44465;53.206;-6.106;2024-03-29T02:25:31;97606.63;;;20.75;46.95
58686;BME280;44465;53.206;-6.106;2024-03-29T02:27:57;97599.88;;;20.71;46.68
58686;BME280;44465;53.206;-6.106;2024-03-29T02:30:23;97602.47;;;20.81;46.73
58686;BME280;44465;53.206;-6.106;2024-03-29T02:32:50;97606.63;;;20.84;46.71
58686;BME280;44465;53.206;-6.106;2024-03-29T02:35:15;97609.63;;;20.81;46.66
58686;BME280;44465;53.206;-6.106;2024-03-29T02:37:41;97607.63;;;20.83;46.80
58686;BME280;44465;53.206;-6.106;2024-03-29T02:40:06;97604.28;;;20.81;46.66
58686;BME280;44465;53.206;-6.106;2024-03-29T02:42:34;97604.97;;;20.83;46.51
58686;BME280;44465;53.206;-6.106;2024-03-29T02:45:01;97601.25;;;20.75;46.52
58686;BME280;44465;53.206;-6.106;2024-03-29T02:47:27;97597.72;;;20.75;46.47
58686;BME280;44465;53.206;-6.106;2024-03-29T02:49:52;97606.28;;;20.79;46.54
58686;BME280;44465;53.206;-6.106;2024-03-29T02:52:18;97601.09;;;20.77;46.46
58686;BME280;44465;53.206;-6.106;2024-03-29T02:54:44;97595.75;;;20.77;46.49
58686;BME280;44465;53.206;-6.106;2024-03-29T02:57:10;97601.53;;;20.72;46.27
58686;BME280;44465;53.206;-6.106;2024-03-29T02:59:35;97591.19;;;20.69;46.36
58686;BME280;44465;53.206;-6.106;2024-03-29T03:02:01;97602.94;;;20.76;46.49
58686;BME280;44465;53.206;-6.106;2024-03-29T03:04:27;97594.22;;;20.74;46.70
58686;BME280;44465;53.206;-6.106;2024-03-29T03:06:52;97588.34;;;20.71;46.66
58686;BME280;44465;53.206;-6.106;2024-03-29T03:09:18;97593.25;;;20.75;46.59
58686;BME280;44465;53.206;-6.106;2024-03-29T03:12:02;97579.63;;;20.69;46.60
58686;BME280;44465;53.206;-6.106;2024-03-29T03:14:27;97595.06;;;20.75;46.56
58686;BME280;44465;53.206;-6.106;2024-03-29T03:16:53;97586.97;;;20.67;46.66
58686;BME280;44465;53.206;-6.106;2024-03-29T03:19:18;97589.16;;;20.71;46.70
58686;BME280;44465;53.206;-6.106;2024-03-29T03:21:44;97590.03;;;20.72;46.44
58686;BME280;44465;53.206;-6.106;2024-03-29T03:24:09;97587.84;;;20.67;46.66
58686;BME280;44465;53.206;-6.106;2024-03-29T03:26:37;97604.38;;;20.71;46.38
58686;BME280;44465;53.206;-6.106;2024-03-29T03:29:02;97598.19;;;20.70;46.45
58686;BME280;44465;53.206;-6.106;2024-03-29T03:31:28;97584.78;;;20.62;46.44
58686;BME280;44465;53.206;-6.106;2024-03-29T03:33:53;97603.69;;;20.69;46.64
58686;BME280;44465;53.206;-6.106;2024-03-29T03:36:19;97593.81;;;20.61;46.48
58686;BME280;44465;53.206;-6.106;2024-03-29T03:38:44;97608.38;;;20.67;46.38
58686;BME280;44465;53.206;-6.106;2024-03-29T03:41:10;97590.13;;;20.62;46.84
58686;BME280;44465;53.206;-6.106;2024-03-29T03:43:35;97601.03;;;20.69;46.50
58686;BME280;44465;53.206;-6.106;2024-03-29T03:46:01;97597.53;;;20.68;46.50
58686;BME280;44465;53.206;-6.106;2024-03-29T03:48:27;97597.53;;;20.68;46.42
58686;BME280;44465;53.206;-6.106;2024-03-29T03:50:54;97588.97;;;20.65;46.35
58686;BME280;44465;53.206;-6.106;2024-03-29T03:53:19;97581.13;;;20.63;46.39
58686;BME280;44465;53.206;-6.106;2024-03-29T03:55:45;97592.31;;;20.67;46.66
58686;BME280;44465;53.206;-6.106;2024-03-29T03:58:10;97582.63;;;20.66;46.53
58686;BME280;44465;53.206;-6.106;2024-03-29T04:00:37;97580.81;;;20.66;46.44
58686;BME280;44465;53.206;-6.106;2024-03-29T04:03:02;97557.72;;;20.57;46.63
58686;BME280;44465;53.206;-6.106;2024-03-29T04:05:29;97558.41;;;20.59;46.44
58686;BME280;44465;53.206;-6.106;2024-03-29T04:07:57;97551.19;;;20.59;46.35
58686;BME280;44465;53.206;-6.106;2024-03-29T04:10:22;97561.56;;;20.63;46.63
58686;BME280;44465;53.206;-6.106;2024-03-29T04:12:47;97563.41;;;20.62;46.56
58686;BME280;44465;53.206;-6.106;2024-03-29T04:15:13;97565.38;;;20.60;46.32
58686;BME280;44465;53.206;-6.106;2024-03-29T04:17:38;97561.41;;;20.64;46.52
58686;BME280;44465;53.206;-6.106;2024-03-29T04:20:04;97566.06;;;20.62;46.50
58686;BME280;44465;53.206;-6.106;2024-03-29T04:22:30;97568.22;;;20.58;46.31
58686;BME280;44465;53.206;-6.106;2024-03-29T04:24:56;97555.34;;;20.54;46.49
58686;BME280;44465;53.206;-6.106;2024-03-29T04:27:22;97562.88;;;20.58;46.53
58686;BME280;44465;53.206;-6.106;2024-03-29T04:29:50;97576.09;;;20.60;46.46
58686;BME280;44465;53.206;-6.106;2024-03-29T04:32:16;97559.31;;;20.50;46.49
58686;BME280;44465;53.206;-6.106;2024-03-29T04:34:41;97567.53;;;20.48;46.44
58686;BME280;44465;53.206;-6.106;2024-03-29T04:37:07;97592.13;;;20.60;46.63
58686;BME280;44465;53.206;-6.106;2024-03-29T04:39:32;97578.72;;;20.52;46.46
58686;BME280;44465;53.206;-6.106;2024-03-29T04:41:58;97578.72;;;20.52;46.42
58686;BME280;44465;53.206;-6.106;2024-03-29T04:44:25;97585.44;;;20.56;46.67
58686;BME280;44465;53.206;-6.106;2024-03-29T04:46:51;97576.06;;;20.52;46.48
58686;BME280;44465;53.206;-6.106;2024-03-29T04:49:22;97605.84;;;20.57;46.44
58686;BME280;44465;53.206;-6.106;2024-03-29T04:51:56;97602.31;;;20.56;46.65
58686;BME280;44465;53.206;-6.106;2024-03-29T04:54:22;97598.13;;;20.54;46.82
58686;BME280;44465;53.206;-6.106;2024-03-29T04:56:47;97605.84;;;20.57;46.44
58686;BME280;44465;53.206;-6.106;2024-03-29T04:59:12;97619.19;;;20.57;46.41
58686;BME280;44465;53.206;-6.106;2024-03-29T05:01:42;97610.78;;;20.52;46.43
58686;BME280;44465;53.206;-6.106;2024-03-29T05:04:10;97611.47;;;20.54;46.25
58686;BME280;44465;53.206;-6.106;2024-03-29T05:06:35;97610.50;;;20.55;46.60
58686;BME280;44465;53.206;-6.106;2024-03-29T05:09:01;97605.78;;;20.49;46.51
58686;BME280;44465;53.206;-6.106;2024-03-29T05:11:26;97620.81;;;20.50;46.38
58686;BME280;44465;53.206;-6.106;2024-03-29T05:13:52;97609.38;;;20.39;46.27
58686;BME280;44465;53.206;-6.106;2024-03-29T05:16:18;97621.84;;;20.49;46.66
58686;BME280;44465;53.206;-6.106;2024-03-29T05:18:43;97628.50;;;20.53;46.38
58686;BME280;44465;53.206;-6.106;2024-03-29T05:21:09;97606.41;;;20.42;46.40
58686;BME280;44465;53.206;-6.106;2024-03-29T05:23:34;97631.19;;;20.53;46.53
58686;BME280;44465;53.206;-6.106;2024-03-29T05:26:00;97628.50;;;20.53;46.45
58686;BME280;44465;53.206;-6.106;2024-03-29T05:28:25;97622.81;;;20.48;46.44
58686;BME280;44465;53.206;-6.106;2024-03-29T05:30:52;97621.84;;;20.49;46.44
58686;BME280;44465;53.206;-6.106;2024-03-29T05:33:17;97630.16;;;20.45;46.48
58686;BME280;44465;53.206;-6.106;2024-03-29T05:35:42;97634.84;;;20.52;46.56
58686;BME280;44465;53.206;-6.106;2024-03-29T05:38:08;97640.19;;;20.52;46.43
58686;BME280;44465;53.206;-6.106;2024-03-29T05:40:33;97636.19;;;20.48;46.30
58686;BME280;44465;53.206;-6.106;2024-03-29T05:42:59;97642.06;;;20.51;46.31
58686;BME280;44465;53.206;-6.106;2024-03-29T05:45:28;97643.88;;;20.51;46.58
58686;BME280;44465;53.206;-6.106;2024-03-29T05:47:55;97623.22;;;20.35;46.44
58686;BME280;44465;53.206;-6.106;2024-03-29T05:50:21;97645.03;;;20.48;46.51
58686;BME280;44465;53.206;-6.106;2024-03-29T05:52:47;97647.69;;;20.48;46.44
58686;BME280;44465;53.206;-6.106;2024-03-29T05:55:12;97649.56;;;20.48;46.35
58686;BME280;44465;53.206;-6.106;2024-03-29T05:57:38;97647.50;;;20.41;46.57
58686;BME280;44465;53.206;-6.106;2024-03-29T06:00:07;97637.66;;;20.42;46.42
58686;BME280;44465;53.206;-6.106;2024-03-29T06:02:32;97633.44;;;20.39;46.62
58686;BME280;44465;53.206;-6.106;2024-03-29T06:04:58;97644.34;;;20.46;46.45
58686;BME280;44465;53.206;-6.106;2024-03-29T06:07:23;97652.22;;;20.48;46.57
58686;BME280;44465;53.206;-6.106;2024-03-29T06:09:49;97645.03;;;20.48;46.64
58686;BME280;44465;53.206;-6.106;2024-03-29T06:12:14;97641.53;;;20.48;46.49
58686;BME280;44465;53.206;-6.106;2024-03-29T06:14:39;97643.53;;;20.45;46.53
58686;BME280;44465;53.206;-6.106;2024-03-29T06:17:24;97632.44;;;20.40;46.50
58686;BME280;44465;53.206;-6.106;2024-03-29T06:19:54;97648.00;;;20.45;46.47
58686;BME280;44465;53.206;-6.106;2024-03-29T06:22:24;97644.34;;;20.46;46.68
58686;BME280;44465;53.206;-6.106;2024-03-29T06:24:50;97643.81;;;20.42;46.59
58686;BME280;44465;53.206;-6.106;2024-03-29T06:27:19;97650.69;;;20.45;46.52
58686;BME280;44465;53.206;-6.106;2024-03-29T06:29:48;97635.47;;;20.37;46.50
58686;BME280;44465;53.206;-6.106;2024-03-29T06:32:13;97644.69;;;20.43;46.42
58686;BME280;44465;53.206;-6.106;2024-03-29T06:34:39;97630.72;;;20.31;46.50
58686;BME280;44465;53.206;-6.106;2024-03-29T06:37:04;97649.84;;;20.44;46.24
58686;BME280;44465;53.206;-6.106;2024-03-29T06:39:30;97643.81;;;20.42;46.34
58686;BME280;44465;53.206;-6.106;2024-03-29T06:41:55;97649.16;;;20.42;46.55
58686;BME280;44465;53.206;-6.106;2024-03-29T06:44:21;97645.81;;;20.40;46.39
58686;BME280;44465;53.206;-6.106;2024-03-29T06:46:46;97647.50;;;20.41;46.54
58686;BME280;44465;53.206;-6.106;2024-03-29T06:49:12;97650.16;;;20.41;46.41
58686;BME280;44465;53.206;-6.106;2024-03-29T06:51:41;97650.84;;;20.43;46.54
58686;BME280;44465;53.206;-6.106;2024-03-29T06:54:06;97624.56;;;20.30;46.41
58686;BME280;44465;53.206;-6.106;2024-03-29T06:56:32;97655.38;;;20.43;46.58
58686;BME280;44465;53.206;-6.106;2024-03-29T06:58:58;97658.50;;;20.38;46.25
58686;BME280;44465;53.206;-6.106;2024-03-29T07:01:23;97662.19;;;20.37;46.31
58686;BME280;44465;53.206;-6.106;2024-03-29T07:03:49;97663.16;;;20.36;46.55
58686;BME280;44465;53.206;-6.106;2024-03-29T07:06:14;97663.88;;;20.38;46.37
58686;BME280;44465;53.206;-6.106;2024-03-29T07:08:40;97681.25;;;20.42;46.29
58686;BME280;44465;53.206;-6.106;2024-03-29T07:11:05;97674.56;;;20.38;46.55
58686;BME280;44465;53.206;-6.106;2024-03-29T07:13:31;97684.22;;;20.39;46.49
58686;BME280;44465;53.206;-6.106;2024-03-29T07:16:00;97689.09;;;20.44;46.57
58686;BME280;44465;53.206;-6.106;2024-03-29T07:18:26;97695.06;;;20.38;46.52
58686;BME280;44465;53.206;-6.106;2024-03-29T07:20:52;97696.44;;;20.42;46.36
58686;BME280;44465;53.206;-6.106;2024-03-29T07:23:17;97696.44;;;20.42;46.59
58686;BME280;44465;53.206;-6.106;2024-03-29T07:25:44;97680.41;;;20.42;46.13
58686;BME280;44465;53.206;-6.106;2024-03-29T07:28:11;97676.19;;;20.39;46.46
58686;BME280;44465;53.206;-6.106;2024-03-29T07:30:40;97670.84;;;20.39;46.21
58686;BME280;44465;53.206;-6.106;2024-03-29T07:33:06;97675.22;;;20.40;46.44
58686;BME280;44465;53.206;-6.106;2024-03-29T07:35:31;97677.34;;;20.37;46.48
58686;BME280;44465;53.206;-6.106;2024-03-29T07:37:57;97665.31;;;20.33;46.37
58686;BME280;44465;53.206;-6.106;2024-03-29T07:40:22;97668.00;;;20.33;46.61
58686;BME280;44465;53.206;-6.106;2024-03-29T07:42:48;97672.19;;;20.35;46.42
58686;BME280;44465;53.206;-6.106;2024-03-29T07:45:13;97674.84;;;20.35;46.66
58686;BME280;44465;53.206;-6.106;2024-03-29T07:47:39;97672.31;;;20.34;46.08
58686;BME280;44465;53.206;-6.106;2024-03-29T07:50:04;97676.53;;;20.36;46.37
58686;BME280;44465;53.206;-6.106;2024-03-29T07:52:33;97685.53;;;20.35;46.52
58686;BME280;44465;53.206;-6.106;2024-03-29T07:54:58;97693.91;;;20.40;46.54
58686;BME280;44465;53.206;-6.106;2024-03-29T07:57:25;97695.94;;;20.38;46.27
58686;BME280;44465;53.206;-6.106;2024-03-29T07:59:51;97691.41;;;20.39;46.47
58686;BME280;44465;53.206;-6.106;2024-03-29T08:02:16;97695.59;;;20.41;46.64
58686;BME280;44465;53.206;-6.106;2024-03-29T08:04:42;97676.16;;;20.31;46.50
58686;BME280;44465;53.206;-6.106;2024-03-29T08:07:08;97696.59;;;20.40;46.60
58686;BME280;44465;53.206;-6.106;2024-03-29T08:09:34;97705.28;;;20.42;46.60
58686;BME280;44465;53.206;-6.106;2024-03-29T08:11:59;97697.41;;;20.33;46.63
58686;BME280;44465;53.206;-6.106;2024-03-29T08:14:25;97712.50;;;20.42;46.80
58686;BME280;44465;53.206;-6.106;2024-03-29T08:16:53;97711.97;;;20.38;46.65
58686;BME280;44465;53.206;-6.106;2024-03-29T08:19:19;97716.28;;;20.39;46.85
58686;BME280;44465;53.206;-6.106;2024-03-29T08:21:45;97728.66;;;20.40;46.73
58686;BME280;44465;53.206;-6.106;2024-03-29T08:24:10;97733.88;;;20.42;46.65
58686;BME280;44465;53.206;-6.106;2024-03-29T08:26:36;97726.63;;;20.34;46.85
58686;BME280;44465;53.206;-6.106;2024-03-29T08:29:02;97729.13;;;20.36;46.72
58686;BME280;44465;53.206;-6.106;2024-03-29T08:31:28;97728.81;;;20.39;46.65
58686;BME280;44465;53.206;-6.106;2024-03-29T08:33:53;97728.34;;;20.43;46.69
58686;BME280;44465;53.206;-6.106;2024-03-29T08:36:19;97732.72;;;20.44;46.73
58686;BME280;44465;53.206;-6.106;2024-03-29T08:38:44;97738.06;;;20.44;46.57
58686;BME280;44465;53.206;-6.106;2024-03-29T08:41:12;97719.28;;;20.36;46.62
58686;BME280;44465;53.206;-6.106;2024-03-29T08:43:37;97729.06;;;20.45;46.65
58686;BME280;44465;53.206;-6.106;2024-03-29T08:46:03;97724.41;;;20.48;46.73
58686;BME280;44465;53.206;-6.106;2024-03-29T08:48:28;97719.06;;;20.48;46.70
58686;BME280;44465;53.206;-6.106;2024-03-29T08:50:54;97718.34;;;20.45;46.68
58686;BME280;44465;53.206;-6.106;2024-03-29T08:53:20;97719.34;;;20.44;46.81
58686;BME280;44465;53.206;-6.106;2024-03-29T08:55:47;97726.38;;;20.45;46.48
58686;BME280;44465;53.206;-6.106;2024-03-29T08:58:16;97720.66;;;20.40;46.66
58686;BME280;44465;53.206;-6.106;2024-03-29T09:00:52;97731.84;;;20.44;46.80
58686;BME280;44465;53.206;-6.106;2024-03-29T09:03:18;97722.31;;;20.41;46.95
58686;BME280;44465;53.206;-6.106;2024-03-29T09:05:43;97731.56;;;20.47;47.00
58686;BME280;44465;53.206;-6.106;2024-03-29T09:08:09;97727.66;;;20.41;46.83
58686;BME280;44465;53.206;-6.106;2024-03-29T09:10:34;97737.06;;;20.45;46.90
58686;BME280;44465;53.206;-6.106;2024-03-29T09:13:00;97729.34;;;20.42;46.63
58686;BME280;44465;53.206;-6.106;2024-03-29T09:15:25;97740.25;;;20.49;46.77
58686;BME280;44465;53.206;-6.106;2024-03-29T09:17:50;97746.44;;;20.50;46.62
58686;BME280;44465;53.206;-6.106;2024-03-29T09:20:19;97743.75;;;20.50;46.59
58686;BME280;44465;53.206;-6.106;2024-03-29T09:22:45;97743.75;;;20.50;46.54
58686;BME280;44465;53.206;-6.106;2024-03-29T09:25:10;97743.75;;;20.50;46.41
58686;BME280;44465;53.206;-6.106;2024-03-29T09:27:39;97735.91;;;20.48;46.39
58686;BME280;44465;53.206;-6.106;2024-03-29T09:30:09;97735.75;;;20.50;46.55
58686;BME280;44465;53.206;-6.106;2024-03-29T09:32:35;97730.72;;;20.46;46.78
58686;BME280;44465;53.206;-6.106;2024-03-29T09:35:00;97739.44;;;20.49;46.72
58686;BME280;44465;53.206;-6.106;2024-03-29T09:37:26;97744.63;;;20.50;46.47
58686;BME280;44465;53.206;-6.106;2024-03-29T09:39:52;97735.56;;;20.43;46.60
58686;BME280;44465;53.206;-6.106;2024-03-29T09:42:18;97736.06;;;20.46;46.51
58686;BME280;44465;53.206;-6.106;2024-03-29T09:44:45;97746.78;;;20.46;46.69
58686;BME280;44465;53.206;-6.106;2024-03-29T09:47:14;97737.06;;;20.45;46.66
58686;BME280;44465;53.206;-6.106;2024-03-29T09:49:41;97749.81;;;20.52;46.73
58686;BME280;44465;53.206;-6.106;2024-03-29T09:52:10;97727.66;;;20.41;46.70
58686;BME280;44465;53.206;-6.106;2024-03-29T09:54:35;97734.41;;;20.45;46.61
58686;BME280;44465;53.206;-6.106;2024-03-29T09:57:01;97738.75;;;20.46;46.78
58686;BME280;44465;53.206;-6.106;2024-03-29T09:59:27;97754.84;;;20.55;46.48
58686;BME280;44465;53.206;-6.106;2024-03-29T10:01:54;97756.22;;;20.59;46.60
58686;BME280;44465;53.206;-6.106;2024-03-29T10:04:23;97755.38;;;20.58;46.32
58686;BME280;44465;53.206;-6.106;2024-03-29T10:06:49;97755.06;;;20.61;46.37
58686;BME280;44465;53.206;-6.106;2024-03-29T10:09:19;97750.72;;;20.60;46.29
58686;BME280;44465;53.206;-6.106;2024-03-29T10:11:45;97768.78;;;20.67;46.55
58686;BME280;44465;53.206;-6.106;2024-03-29T10:14:11;97758.56;;;20.62;46.35
58686;BME280;44465;53.206;-6.106;2024-03-29T10:16:37;97764.91;;;20.61;46.22
58686;BME280;44465;53.206;-6.106;2024-03-29T10:19:03;97736.28;;;20.53;46.62
58686;BME280;44465;53.206;-6.106;2024-03-29T10:21:29;97748.34;;;20.57;46.59
58686;BME280;44465;53.206;-6.106;2024-03-29T10:23:54;97753.22;;;20.62;46.40
58686;BME280;44465;53.206;-6.106;2024-03-29T10:26:21;97749.72;;;20.61;46.48
58686;BME280;44465;53.206;-6.106;2024-03-29T10:28:47;97758.56;;;20.62;46.61
58686;BME280;44465;53.206;-6.106;2024-03-29T10:31:13;97728.75;;;20.49;46.49
58686;BME280;44465;53.206;-6.106;2024-03-29T10:33:42;97753.91;;;20.64;46.48
58686;BME280;44465;53.206;-6.106;2024-03-29T10:36:09;97735.97;;;20.56;46.80
58686;BME280;44465;53.206;-6.106;2024-03-29T10:38:38;97746.19;;;20.61;46.52
58686;BME280;44465;53.206;-6.106;2024-03-29T10:41:04;97740.53;;;20.64;46.64
58686;BME280;44465;53.206;-6.106;2024-03-29T10:43:32;97743.91;;;20.66;46.59
58686;BME280;44465;53.206;-6.106;2024-03-29T10:46:00;97741.91;;;20.68;46.73
58686;BME280;44465;53.206;-6.106;2024-03-29T10:48:27;97741.91;;;20.68;46.67
58686;BME280;44465;53.206;-6.106;2024-03-29T10:50:57;97731.84;;;20.62;46.61
58686;BME280;44465;53.206;-6.106;2024-03-29T10:53:24;97737.56;;;20.67;46.77
58686;BME280;44465;53.206;-6.106;2024-03-29T10:55:58;97734.19;;;20.65;46.72
58686;BME280;44465;53.206;-6.106;2024-03-29T10:58:33;97745.41;;;20.69;46.56
58686;BME280;44465;53.206;-6.106;2024-03-29T11:01:01;97735.88;;;20.66;46.99
58686;BME280;44465;53.206;-6.106;2024-03-29T11:03:37;97742.56;;;20.70;46.77
58686;BME280;44465;53.206;-6.106;2024-03-29T11:06:04;97750.47;;;20.72;46.68
58686;BME280;44465;53.206;-6.106;2024-03-29T11:08:33;97749.59;;;20.71;46.70
58686;BME280;44465;53.206;-6.106;2024-03-29T11:11:00;97759.19;;;20.74;46.68
58686;BME280;44465;53.206;-6.106;2024-03-29T11:13:52;97755.63;;;20.73;46.69
58686;BME280;44465;53.206;-6.106;2024-03-29T11:16:18;97758.47;;;20.72;46.63
58686;BME280;44465;53.206;-6.106;2024-03-29T11:18:47;97755.13;;;20.70;46.53
58686;BME280;44465;53.206;-6.106;2024-03-29T11:21:16;97746.88;;;20.63;46.57
58686;BME280;44465;53.206;-6.106;2024-03-29T11:23:52;97764.38;;;20.75;46.35
58686;BME280;44465;53.206;-6.106;2024-03-29T11:26:19;97770.00;;;20.72;46.22
58686;BME280;44465;53.206;-6.106;2024-03-29T11:28:49;97755.94;;;20.70;46.58
58686;BME280;44465;53.206;-6.106;2024-03-29T11:31:15;97767.66;;;20.69;46.51
58686;BME280;44465;53.206;-6.106;2024-03-29T11:36:17;97770.00;;;20.72;46.68
58686;BME280;44465;53.206;-6.106;2024-03-29T11:38:45;97772.69;;;20.72;46.50
58686;BME280;44465;53.206;-6.106;2024-03-29T11:41:16;97764.13;;;20.69;46.52
58686;BME280;44465;53.206;-6.106;2024-03-29T11:43:42;97771.84;;;20.72;46.68
58686;BME280;44465;53.206;-6.106;2024-03-29T11:46:12;97765.66;;;20.71;46.64
58686;BME280;44465;53.206;-6.106;2024-03-29T11:48:38;97768.78;;;20.67;46.68
58686;BME280;44465;53.206;-6.106;2024-03-29T11:51:09;97778.03;;;20.72;46.55
58686;BME280;44465;53.206;-6.106;2024-03-29T11:53:36;97767.44;;;20.63;46.60
58686;BME280;44465;53.206;-6.106;2024-03-29T11:56:03;97789.56;;;20.73;46.60
58686;BME280;44465;53.206;-6.106;2024-03-29T11:58:31;97788.72;;;20.72;46.54
58686;BME280;44465;53.206;-6.106;2024-03-29T12:00:58;97789.66;;;20.63;46.43
58686;BME280;44465;53.206;-6.106;2024-03-29T12:03:31;97805.63;;;20.73;46.82
58686;BME280;44465;53.206;-6.106;2024-03-29T12:05:58;97809.13;;;20.73;46.49
58686;BME280;44465;53.206;-6.106;2024-03-29T12:08:29;97806.31;;;20.75;46.64
58686;BME280;44465;53.206;-6.106;2024-03-29T12:10:55;97795.91;;;20.72;46.73
58686;BME280;44465;53.206;-6.106;2024-03-29T12:13:20;97802.81;;;20.74;46.84
58686;BME280;44465;53.206;-6.106;2024-03-29T12:15:45;97802.00;;;20.74;46.60
58686;BME280;44465;53.206;-6.106;2024-03-29T12:18:11;97802.09;;;20.72;46.54
58686;BME280;44465;53.206;-6.106;2024-03-29T12:20:38;97806.19;;;20.76;46.40
58686;BME280;44465;53.206;-6.106;2024-03-29T12:23:09;97798.44;;;20.73;46.47
58686;BME280;44465;53.206;-6.106;2024-03-29T12:25:37;97804.50;;;20.75;46.29
58686;BME280;44465;53.206;-6.106;2024-03-29T12:28:03;97810.38;;;20.79;46.39
58686;BME280;44465;53.206;-6.106;2024-03-29T12:30:29;97798.44;;;20.73;46.43
58686;BME280;44465;53.206;-6.106;2024-03-29T12:33:12;97801.66;;;20.77;46.39
58686;BME280;44465;53.206;-6.106;2024-03-29T12:35:44;97808.84;;;20.76;46.46
58686;BME280;44465;53.206;-6.106;2024-03-29T12:38:11;97815.47;;;20.72;46.62
58686;BME280;44465;53.206;-6.106;2024-03-29T12:40:38;97812.78;;;20.72;46.59
58686;BME280;44465;53.206;-6.106;2024-03-29T12:43:06;97805.75;;;20.71;46.52
58686;BME280;44465;53.206;-6.106;2024-03-29T12:45:36;97814.03;;;20.78;46.42
58686;BME280;44465;53.206;-6.106;2024-03-29T12:48:09;97820.25;;;20.79;46.78
58686;BME280;44465;53.206;-6.106;2024-03-29T12:50:35;97810.84;;;20.74;46.55